createdAt,value
2018-11-13T07:42:39.053Z,17.15
2018-11-13T07:42:55.405Z,17.24
2018-11-13T07:43:11.767Z,17.36
2018-11-13T07:43:28.155Z,17.4
2018-11-13T07:43:44.590Z,17.37
2018-11-13T07:44:00.960Z,17.32
2018-11-13T07:44:17.346Z,17.28
2018-11-13T07:44:33.709Z,17.22
2018-11-13T07:44:50.091Z,17.17
2018-11-13T07:45:06.482Z,17.13
2018-11-13T07:45:22.866Z,17.09
2018-11-13T07:45:39.260Z,17.07
2018-11-13T07:45:55.613Z,17.05
2018-11-13T07:46:11.958Z,17.03
2018-11-13T07:46:28.427Z,17.02
2018-11-13T07:46:45.268Z,17.02
2018-11-13T07:47:02.591Z,17
2018-11-13T07:47:19.502Z,17
2018-11-13T07:47:38.244Z,17
2018-11-13T07:47:56.714Z,16.99
2018-11-13T07:48:13.688Z,17
2018-11-13T07:48:30.063Z,16.99
2018-11-13T07:48:46.438Z,16.99
2018-11-13T07:49:02.827Z,17.03
2018-11-13T07:49:19.201Z,17.04
2018-11-13T07:49:35.554Z,17.06
2018-11-13T07:49:51.914Z,17.06
2018-11-13T07:50:08.271Z,17.07
2018-11-13T07:50:24.680Z,17.08
2018-11-13T07:50:41.030Z,17.09
2018-11-13T07:50:57.542Z,17.1
2018-11-13T07:51:14.417Z,17.11
2018-11-13T07:51:31.286Z,17.12
2018-11-13T07:51:47.651Z,17.12
2018-11-13T07:52:04.038Z,17.13
2018-11-13T07:52:20.458Z,17.14
2018-11-13T07:52:36.842Z,17.14
2018-11-13T07:52:53.487Z,17.14
2018-11-13T07:53:09.876Z,17.15
2018-11-13T07:53:26.252Z,17.16
2018-11-13T07:53:42.795Z,17.16
2018-11-13T07:53:59.759Z,17.16
2018-11-13T07:54:16.648Z,17.17
2018-11-13T07:54:33.030Z,17.17
2018-11-13T07:54:49.470Z,17.18
2018-11-13T07:55:05.883Z,17.19
2018-11-13T07:55:22.253Z,17.2
2018-11-13T07:55:38.584Z,17.21
2018-11-13T07:55:54.965Z,17.23
2018-11-13T07:56:11.346Z,17.24
2018-11-13T07:56:27.720Z,17.26
2018-11-13T07:56:44.062Z,17.27
2018-11-13T07:57:00.470Z,17.28
2018-11-13T07:57:16.833Z,17.29
2018-11-13T07:57:33.222Z,17.3
2018-11-13T07:57:49.856Z,17.31
2018-11-13T07:58:06.499Z,17.32
2018-11-13T07:58:22.962Z,17.33
2018-11-13T07:58:39.513Z,17.33
2018-11-13T07:58:55.906Z,17.35
2018-11-13T07:59:12.282Z,17.36
2018-11-13T07:59:28.618Z,17.38
2018-11-13T07:59:44.966Z,17.39
2018-11-13T08:00:01.444Z,17.39
2018-11-13T08:00:17.814Z,17.4
2018-11-13T08:00:34.249Z,17.41
2018-11-13T08:00:50.681Z,17.43
2018-11-13T08:01:07.190Z,17.43
2018-11-13T08:01:23.742Z,17.43
2018-11-13T08:01:40.094Z,17.45
2018-11-13T08:01:56.474Z,17.45
2018-11-13T08:02:12.828Z,17.46
2018-11-13T08:02:29.189Z,17.47
2018-11-13T08:02:45.554Z,17.48
2018-11-13T08:03:01.969Z,17.5
2018-11-13T08:03:18.830Z,17.51
2018-11-13T08:03:35.463Z,17.52
2018-11-13T08:03:51.925Z,17.53
2018-11-13T08:04:08.305Z,17.54
2018-11-13T08:04:24.728Z,17.55
2018-11-13T08:04:41.108Z,17.56
2018-11-13T08:04:57.485Z,17.56
2018-11-13T08:05:13.898Z,17.57
2018-11-13T08:05:30.431Z,17.57
2018-11-13T08:05:47.175Z,17.57
2018-11-13T08:06:03.879Z,17.58
2018-11-13T08:06:20.723Z,17.58
2018-11-13T08:06:37.528Z,17.59
2018-11-13T08:06:54.204Z,17.59
2018-11-13T08:07:10.668Z,17.6
2018-11-13T08:07:27.128Z,17.62
2018-11-13T08:07:43.477Z,17.62
2018-11-13T08:07:59.846Z,17.63
2018-11-13T08:08:16.248Z,17.64
2018-11-13T08:08:32.887Z,17.65
2018-11-13T08:08:49.256Z,17.66
2018-11-13T08:09:05.626Z,17.67
2018-11-13T08:09:22.123Z,17.67
2018-11-13T08:09:38.668Z,17.68
2018-11-13T08:09:55.022Z,17.69
2018-11-13T08:10:11.389Z,17.7
2018-11-13T08:10:27.785Z,17.71
2018-11-13T08:10:44.233Z,17.73
2018-11-13T08:11:00.646Z,17.73
2018-11-13T08:11:17.041Z,17.74
2018-11-13T08:11:33.414Z,17.75
2018-11-13T08:11:49.794Z,17.76
2018-11-13T08:12:06.176Z,17.77
2018-11-13T08:12:22.548Z,17.78
2018-11-13T08:12:39.126Z,17.79
2018-11-13T08:12:56.408Z,17.8
2018-11-13T08:13:14.095Z,17.8
2018-11-13T08:13:31.222Z,17.81
2018-11-13T08:13:48.373Z,17.82
2018-11-13T08:14:04.750Z,17.83
2018-11-13T08:14:21.113Z,17.83
2018-11-13T08:14:37.485Z,17.84
2018-11-13T08:14:53.841Z,17.84
2018-11-13T08:15:10.201Z,17.86
2018-11-13T08:15:26.567Z,17.86
2018-11-13T08:15:43.204Z,17.87
2018-11-13T08:15:59.818Z,17.89
2018-11-13T08:16:16.220Z,17.89
2018-11-13T08:16:32.792Z,17.9
2018-11-13T08:16:49.428Z,17.9
2018-11-13T08:17:05.798Z,17.9
2018-11-13T08:17:22.229Z,17.91
2018-11-13T08:17:38.579Z,17.92
2018-11-13T08:17:54.916Z,17.93
2018-11-13T08:18:11.316Z,17.94
2018-11-13T08:18:27.941Z,17.94
2018-11-13T08:18:44.712Z,17.95
2018-11-13T08:19:01.541Z,17.96
2018-11-13T08:19:17.913Z,17.96
2018-11-13T08:19:34.265Z,17.97
2018-11-13T08:19:50.617Z,17.98
2018-11-13T08:20:06.960Z,18
2018-11-13T08:20:23.329Z,17.99
2018-11-13T08:20:39.718Z,18
2018-11-13T08:20:56.252Z,18.01
2018-11-13T08:21:13.088Z,18.01
2018-11-13T08:21:29.802Z,18.01
2018-11-13T08:21:46.163Z,18.02
2018-11-13T08:22:02.686Z,18.04
2018-11-13T08:22:19.906Z,18.05
2018-11-13T08:22:36.811Z,18.06
2018-11-13T08:22:53.189Z,18.08
2018-11-13T08:23:09.579Z,18.08
2018-11-13T08:23:25.981Z,18.1
2018-11-13T08:23:42.353Z,18.1
2018-11-13T08:23:58.734Z,18.1
2018-11-13T08:24:15.381Z,18.1
2018-11-13T08:24:31.751Z,18.11
2018-11-13T08:24:48.147Z,18.12
2018-11-13T08:25:04.661Z,18.13
2018-11-13T08:25:21.635Z,18.13
2018-11-13T08:25:38.609Z,18.13
2018-11-13T08:25:55.171Z,18.15
2018-11-13T08:26:11.748Z,18.15
2018-11-13T08:26:28.543Z,18.15
2018-11-13T08:26:44.917Z,18.15
2018-11-13T08:27:01.658Z,18.16
2018-11-13T08:27:18.500Z,18.17
2018-11-13T08:27:34.953Z,18.18
2018-11-13T08:27:51.599Z,18.2
2018-11-13T08:28:08.608Z,18.21
2018-11-13T08:28:25.539Z,18.22
2018-11-13T08:28:42.474Z,18.22
2018-11-13T08:28:59.788Z,18.23
2018-11-13T08:29:17.440Z,18.23
2018-11-13T08:29:34.379Z,18.24
2018-11-13T08:29:51.002Z,18.24
2018-11-13T08:30:07.369Z,18.25
2018-11-13T08:30:23.745Z,18.24
2018-11-13T08:30:40.139Z,18.25
2018-11-13T08:30:56.536Z,18.25
2018-11-13T08:31:12.882Z,18.25
2018-11-13T08:31:29.429Z,18.26
2018-11-13T08:31:46.052Z,18.27
2018-11-13T08:32:02.450Z,18.27
2018-11-13T08:32:18.811Z,18.29
2018-11-13T08:32:35.191Z,18.28
2018-11-13T08:32:51.559Z,18.28
2018-11-13T08:33:08.020Z,18.3
2018-11-13T08:33:24.528Z,18.31
2018-11-13T08:33:40.896Z,18.31
2018-11-13T08:33:57.278Z,18.32
2018-11-13T08:34:13.646Z,18.32
2018-11-13T08:34:30.283Z,18.33
2018-11-13T08:34:46.795Z,18.33
2018-11-13T08:35:03.849Z,18.34
2018-11-13T08:35:20.671Z,18.34
2018-11-13T08:35:37.170Z,18.35
2018-11-13T08:35:53.665Z,18.35
2018-11-13T08:36:10.057Z,18.35
2018-11-13T08:36:26.470Z,18.36
2018-11-13T08:36:42.831Z,18.36
2018-11-13T08:36:59.228Z,18.36
2018-11-13T08:37:15.594Z,18.36
2018-11-13T08:37:31.950Z,18.37
2018-11-13T08:37:48.308Z,18.37
2018-11-13T08:38:04.682Z,18.37
2018-11-13T08:38:21.035Z,18.38
2018-11-13T08:38:37.424Z,18.39
2018-11-13T08:38:53.801Z,18.4
2018-11-13T08:39:10.188Z,18.4
2018-11-13T08:39:26.558Z,18.41
2018-11-13T08:39:43.203Z,18.41
2018-11-13T08:39:59.609Z,18.41
2018-11-13T08:40:15.968Z,18.41
2018-11-13T08:40:32.364Z,18.42
2018-11-13T08:40:48.721Z,18.42
2018-11-13T08:41:05.065Z,18.44
2018-11-13T08:41:21.418Z,18.45
2018-11-13T08:41:37.785Z,18.44
2018-11-13T08:41:54.231Z,18.44
2018-11-13T08:42:10.616Z,18.44
2018-11-13T08:42:26.959Z,18.46
2018-11-13T08:42:44.274Z,18.46
2018-11-13T08:43:00.616Z,18.46
2018-11-13T08:43:17.245Z,18.45
2018-11-13T08:43:33.599Z,18.45
2018-11-13T08:43:50.200Z,18.45
2018-11-13T08:44:07.000Z,18.46
2018-11-13T08:44:23.590Z,18.46
2018-11-13T08:44:39.927Z,18.46
2018-11-13T08:44:56.527Z,18.47
2018-11-13T08:45:12.896Z,18.47
2018-11-13T08:45:29.262Z,18.47
2018-11-13T08:45:45.642Z,18.47
2018-11-13T08:46:01.997Z,18.48
2018-11-13T08:46:18.399Z,18.49
2018-11-13T08:46:34.809Z,18.49
2018-11-13T08:46:51.392Z,18.5
2018-11-13T08:47:07.774Z,18.51
2018-11-13T08:47:24.140Z,18.5
2018-11-13T08:47:40.494Z,18.5
2018-11-13T08:47:56.853Z,18.51
2018-11-13T08:48:13.220Z,18.52
2018-11-13T08:48:29.569Z,18.52
2018-11-13T08:48:45.919Z,18.53
2018-11-13T08:49:02.270Z,18.53
2018-11-13T08:49:18.907Z,18.53
2018-11-13T08:49:35.268Z,18.53
2018-11-13T08:49:51.618Z,18.53
2018-11-13T08:50:08.346Z,18.53
2018-11-13T08:50:25.176Z,18.53
2018-11-13T08:50:41.969Z,18.53
2018-11-13T08:50:58.719Z,18.54
2018-11-13T08:51:15.091Z,18.54
2018-11-13T08:51:31.474Z,18.55
2018-11-13T08:51:47.831Z,18.54
2018-11-13T08:52:04.192Z,18.54
2018-11-13T08:52:20.559Z,18.55
2018-11-13T08:52:36.910Z,18.56
2018-11-13T08:52:53.295Z,18.57
2018-11-13T08:53:09.630Z,18.57
2018-11-13T08:53:25.989Z,18.57
2018-11-13T08:53:42.394Z,18.58
2018-11-13T08:53:58.759Z,18.58
2018-11-13T08:54:15.142Z,18.58
2018-11-13T08:54:31.540Z,18.58
2018-11-13T08:54:47.908Z,18.59
2018-11-13T08:55:04.322Z,18.59
2018-11-13T08:55:20.953Z,18.6
2018-11-13T08:55:37.374Z,18.59
2018-11-13T08:55:53.724Z,18.6
2018-11-13T08:56:10.112Z,18.61
2018-11-13T08:56:26.518Z,18.61
2018-11-13T08:56:42.859Z,18.61
2018-11-13T08:56:59.233Z,18.61
2018-11-13T08:57:15.602Z,18.62
2018-11-13T08:57:32.013Z,18.63
2018-11-13T08:57:48.373Z,18.64
2018-11-13T08:58:04.741Z,18.64
2018-11-13T08:58:21.494Z,18.65
2018-11-13T08:58:38.314Z,18.65
2018-11-13T08:58:55.334Z,18.66
2018-11-13T08:59:12.804Z,18.66
2018-11-13T08:59:30.046Z,18.65
2018-11-13T08:59:46.956Z,18.65
2018-11-13T09:00:03.390Z,18.65
2018-11-13T09:00:19.798Z,18.65
2018-11-13T09:00:36.484Z,18.65
2018-11-13T09:00:52.872Z,18.66
2018-11-13T09:01:09.261Z,18.67
2018-11-13T09:01:25.642Z,18.69
2018-11-13T09:01:42.017Z,18.69
2018-11-13T09:01:58.486Z,18.69
2018-11-13T09:02:14.879Z,18.7
2018-11-13T09:02:31.267Z,18.68
2018-11-13T09:02:47.639Z,18.69
2018-11-13T09:03:04.018Z,18.69
2018-11-13T09:03:20.379Z,18.69
2018-11-13T09:03:36.773Z,18.7
2018-11-13T09:03:53.132Z,18.7
2018-11-13T09:04:09.479Z,18.71
2018-11-13T09:04:25.833Z,18.72
2018-11-13T09:04:42.208Z,18.73
2018-11-13T09:04:58.740Z,18.73
2018-11-13T09:05:15.906Z,18.73
2018-11-13T09:05:32.864Z,18.72
2018-11-13T09:05:49.511Z,18.72
2018-11-13T09:06:05.870Z,18.73
2018-11-13T09:06:22.238Z,18.74
2018-11-13T09:06:38.600Z,18.74
2018-11-13T09:06:54.971Z,18.75
2018-11-13T09:07:11.331Z,18.74
2018-11-13T09:07:27.712Z,18.74
2018-11-13T09:07:44.118Z,18.75
2018-11-13T09:08:00.485Z,18.75
2018-11-13T09:08:16.875Z,18.76
2018-11-13T09:08:33.302Z,18.76
2018-11-13T09:08:49.655Z,18.77
2018-11-13T09:09:06.020Z,18.77
2018-11-13T09:09:22.372Z,18.78
2018-11-13T09:09:38.741Z,18.77
2018-11-13T09:09:55.124Z,18.77
2018-11-13T09:10:11.540Z,18.77
2018-11-13T09:10:28.058Z,18.77
2018-11-13T09:10:44.460Z,18.77
2018-11-13T09:11:01.083Z,18.76
2018-11-13T09:11:17.647Z,18.76
2018-11-13T09:11:34.543Z,18.77
2018-11-13T09:11:51.560Z,18.77
2018-11-13T09:12:08.810Z,18.77
2018-11-13T09:12:25.815Z,18.77
2018-11-13T09:12:42.788Z,18.78
2018-11-13T09:12:59.213Z,18.78
2018-11-13T09:13:15.596Z,18.79
2018-11-13T09:13:32.288Z,18.78
2018-11-13T09:13:48.664Z,18.79
2018-11-13T09:14:05.033Z,18.8
2018-11-13T09:14:21.415Z,18.8
2018-11-13T09:14:37.804Z,18.8
2018-11-13T09:14:54.188Z,18.81
2018-11-13T09:15:10.576Z,18.82
2018-11-13T09:15:26.963Z,18.82
2018-11-13T09:15:43.355Z,18.82
2018-11-13T09:15:59.712Z,18.83
2018-11-13T09:16:16.330Z,18.83
2018-11-13T09:16:32.725Z,18.83
2018-11-13T09:16:49.121Z,18.81
2018-11-13T09:17:05.496Z,18.82
2018-11-13T09:17:21.886Z,18.83
2018-11-13T09:17:38.268Z,18.83
2018-11-13T09:17:54.781Z,18.83
2018-11-13T09:18:11.295Z,18.84
2018-11-13T09:18:27.757Z,18.84
2018-11-13T09:18:44.551Z,18.85
2018-11-13T09:19:01.618Z,18.86
2018-11-13T09:19:19.252Z,18.85
2018-11-13T09:19:37.583Z,18.85
2018-11-13T09:19:55.157Z,18.84
2018-11-13T09:20:11.571Z,18.86
2018-11-13T09:20:27.948Z,18.86
2018-11-13T09:20:44.329Z,18.85
2018-11-13T09:21:00.717Z,18.85
2018-11-13T09:21:17.363Z,18.85
2018-11-13T09:21:33.729Z,18.86
2018-11-13T09:21:50.262Z,18.87
2018-11-13T09:22:06.830Z,18.87
2018-11-13T09:22:23.208Z,18.87
2018-11-13T09:22:39.741Z,18.87
2018-11-13T09:22:56.428Z,18.87
2018-11-13T09:23:12.813Z,18.87
2018-11-13T09:23:29.215Z,18.87
2018-11-13T09:23:45.584Z,18.87
2018-11-13T09:24:02.012Z,18.88
2018-11-13T09:24:18.398Z,18.88
2018-11-13T09:24:36.810Z,18.88
2018-11-13T09:24:55.170Z,18.87
2018-11-13T09:25:13.533Z,18.86
2018-11-13T09:25:31.900Z,18.86
2018-11-13T09:25:50.278Z,18.86
2018-11-13T09:26:08.646Z,18.87
2018-11-13T09:26:27.287Z,18.87
2018-11-13T09:26:45.643Z,18.88
2018-11-13T09:27:04.092Z,18.89
2018-11-13T09:27:22.458Z,18.89
2018-11-13T09:27:40.823Z,18.89
2018-11-13T09:27:59.211Z,18.89
2018-11-13T09:28:17.564Z,18.89
2018-11-13T09:28:36.171Z,18.88
2018-11-13T09:28:54.521Z,18.89
2018-11-13T09:29:12.864Z,18.89
2018-11-13T09:29:31.230Z,18.89
2018-11-13T09:29:49.840Z,18.88
2018-11-13T09:30:09.009Z,18.89
2018-11-13T09:30:28.846Z,18.89
2018-11-13T09:30:49.499Z,18.88
2018-11-13T09:31:09.706Z,18.88
2018-11-13T09:31:29.481Z,18.89
2018-11-13T09:31:48.734Z,18.9
2018-11-13T09:32:07.463Z,18.9
2018-11-13T09:32:25.831Z,18.9
2018-11-13T09:32:44.221Z,18.9
2018-11-13T09:33:02.820Z,18.91
2018-11-13T09:33:21.408Z,18.92
2018-11-13T09:33:40.012Z,18.93
2018-11-13T09:33:58.618Z,18.93
2018-11-13T09:34:17.000Z,18.94
2018-11-13T09:34:35.407Z,18.95
2018-11-13T09:34:53.772Z,18.97
2018-11-13T09:35:12.373Z,19
2018-11-13T09:35:31.072Z,19.02
2018-11-13T19:23:32.093Z,21.22
2018-11-13T19:28:35.570Z,21.53
2018-11-13T19:28:51.950Z,23.84
2018-11-13T19:29:08.310Z,22.5
2018-11-13T19:29:24.816Z,22.02
2018-11-13T19:29:41.807Z,21.61
2018-11-13T19:29:58.699Z,21.23
2018-11-13T19:30:15.818Z,20.9
2018-11-13T19:30:32.751Z,20.64
2018-11-13T19:30:49.139Z,20.37
2018-11-13T19:31:05.829Z,20.15
2018-11-13T19:31:22.450Z,19.99
2018-11-13T19:31:38.832Z,19.83
2018-11-13T19:31:55.196Z,19.72
2018-11-13T19:32:11.547Z,19.62
2018-11-13T19:32:27.911Z,19.52
2018-11-13T19:32:44.292Z,19.45
2018-11-13T19:33:00.669Z,19.37
2018-11-13T19:33:17.047Z,19.32
2018-11-13T19:33:33.410Z,19.3
2018-11-13T19:33:50.058Z,19.25
2018-11-13T19:34:06.407Z,19.23
2018-11-13T19:34:22.771Z,19.21
2018-11-13T19:34:39.173Z,19.19
2018-11-13T19:34:55.648Z,19.18
2018-11-13T19:35:12.464Z,19.16
2018-11-13T19:35:29.746Z,19.14
2018-11-13T19:35:47.508Z,19.12
2018-11-13T19:36:05.356Z,19.11
2018-11-13T19:36:23.383Z,19.1
2018-11-13T19:36:40.533Z,19.09
2018-11-13T19:36:57.226Z,19.07
2018-11-13T19:37:13.798Z,19.07
2018-11-13T19:37:30.420Z,19.08
2018-11-13T19:37:46.799Z,19.08
2018-11-13T19:38:03.166Z,19.09
2018-11-13T19:38:19.536Z,19.08
2018-11-13T19:38:36.251Z,19.08
2018-11-13T19:38:53.205Z,19.07
2018-11-13T19:39:09.975Z,19.07
2018-11-13T19:39:26.368Z,19.07
2018-11-13T19:39:42.838Z,19.06
2018-11-13T19:40:00.455Z,19.08
2018-11-13T19:40:18.371Z,19.08
2018-11-13T19:40:34.805Z,19.09
2018-11-13T19:40:51.157Z,19.07
2018-11-13T19:41:07.590Z,19.07
2018-11-13T19:41:23.951Z,19.08
2018-11-13T19:41:40.301Z,19.08
2018-11-13T19:41:56.679Z,19.08
2018-11-13T19:42:13.034Z,19.08
2018-11-13T19:42:29.387Z,19.08
2018-11-13T19:42:45.908Z,19.08
2018-11-13T19:43:02.586Z,19.07
2018-11-13T19:43:19.368Z,19.07
2018-11-13T19:43:35.734Z,19.08
2018-11-13T19:43:52.130Z,19.07
2018-11-13T19:44:08.768Z,19.07
2018-11-13T19:44:25.302Z,19.07
2018-11-13T19:44:42.097Z,19.08
2018-11-13T19:44:58.757Z,19.07
2018-11-13T19:45:15.650Z,19.07
2018-11-13T19:45:32.266Z,19.06
2018-11-13T19:45:48.688Z,19.06
2018-11-13T19:46:05.070Z,19.05
2018-11-13T19:46:21.449Z,19.05
2018-11-13T19:46:37.819Z,19.05
2018-11-13T19:46:54.162Z,19.05
2018-11-13T19:47:10.547Z,19.03
2018-11-13T19:47:26.908Z,19.03
2018-11-13T19:47:43.273Z,19.03
2018-11-13T19:47:59.679Z,19.04
2018-11-13T19:48:16.076Z,19.05
2018-11-13T19:48:32.433Z,19.05
2018-11-13T19:48:48.778Z,19.05
2018-11-13T19:49:05.320Z,19.05
2018-11-13T19:49:23.706Z,19.07
2018-11-13T19:49:41.716Z,19.06
2018-11-13T19:49:58.466Z,19.06
2018-11-13T19:50:14.850Z,19.06
2018-11-13T19:50:31.261Z,19.06
2018-11-13T19:50:47.650Z,19.05
2018-11-13T19:51:04.036Z,19.06
2018-11-13T19:51:20.591Z,19.06
2018-11-13T19:51:37.356Z,19.07
2018-11-13T19:51:54.336Z,19.07
2018-11-13T19:52:10.703Z,19.06
2018-11-13T19:52:27.080Z,19.06
2018-11-13T19:52:43.452Z,19.08
2018-11-13T19:52:59.865Z,19.07
2018-11-13T19:53:16.347Z,19.06
2018-11-13T19:53:32.940Z,19.06
2018-11-13T19:53:49.929Z,19.06
2018-11-13T19:54:06.445Z,19.05
2018-11-13T19:54:23.123Z,19.05
2018-11-13T19:54:39.730Z,19.04
2018-11-13T19:54:56.305Z,19.03
2018-11-13T19:55:12.705Z,19.04
2018-11-13T19:55:29.103Z,19.05
2018-11-13T19:55:45.473Z,19.05
2018-11-13T19:56:01.840Z,19.05
2018-11-13T19:56:18.211Z,19.04
2018-11-13T19:56:34.585Z,19.05
2018-11-13T19:56:50.955Z,19.04
2018-11-13T19:57:07.337Z,19.05
2018-11-13T19:57:23.851Z,19.05
2018-11-13T19:57:40.756Z,19.04
2018-11-13T19:57:58.003Z,19.03
2018-11-13T19:58:14.555Z,19.03
2018-11-13T19:58:30.890Z,19.04
2018-11-13T19:58:47.246Z,19.04
2018-11-13T19:59:03.597Z,19.03
2018-11-13T19:59:19.965Z,19.03
2018-11-13T19:59:36.990Z,19.03
2018-11-13T19:59:53.353Z,19.04
2018-11-13T20:00:09.717Z,19.02
2018-11-13T20:00:26.115Z,19.02
2018-11-13T20:00:42.579Z,19.04
2018-11-13T20:00:59.711Z,19.03
2018-11-13T20:01:16.547Z,19.03
2018-11-13T20:01:32.977Z,19.02
2018-11-13T20:01:49.354Z,19.01
2018-11-13T20:02:05.711Z,19.01
2018-11-13T20:02:22.094Z,19.03
2018-11-13T20:02:38.460Z,19.03
2018-11-13T20:02:54.855Z,19.03
2018-11-13T20:03:11.253Z,19.03
2018-11-13T20:03:27.657Z,19.04
2018-11-13T20:03:44.043Z,19.03
2018-11-13T20:04:00.574Z,19.02
2018-11-13T20:04:17.851Z,19.01
2018-11-13T20:04:34.964Z,19.02
2018-11-13T20:04:52.316Z,19.02
2018-11-13T20:05:09.104Z,19.03
2018-11-13T20:05:25.455Z,19.02
2018-11-13T20:05:41.829Z,19.03
2018-11-13T20:05:58.169Z,19.04
2018-11-13T20:06:14.534Z,19.03
2018-11-13T20:06:30.893Z,19.03
2018-11-13T20:06:47.279Z,19.03
2018-11-13T20:07:03.695Z,19.04
2018-11-13T20:07:20.080Z,19.05
2018-11-13T20:07:36.635Z,19.06
2018-11-13T20:07:53.024Z,19.05
2018-11-13T20:08:09.400Z,19.05
2018-11-13T20:08:25.814Z,19.04
2018-11-13T20:08:42.186Z,19.03
2018-11-13T20:08:58.845Z,19.03
2018-11-13T20:09:15.213Z,19.03
2018-11-13T20:09:31.569Z,19.04
2018-11-13T20:09:47.968Z,19.05
2018-11-13T20:10:04.612Z,19.04
2018-11-13T20:10:21.417Z,19.05
2018-11-13T20:10:38.046Z,19.05
2018-11-13T20:10:54.409Z,19.06
2018-11-13T20:11:10.782Z,19.06
2018-11-13T20:11:27.158Z,19.07
2018-11-13T20:11:43.517Z,19.07
2018-11-13T20:11:59.913Z,19.07
2018-11-13T20:12:16.296Z,19.06
2018-11-13T20:12:32.687Z,19.05
2018-11-13T20:12:49.039Z,19.05
2018-11-13T20:13:05.424Z,19.06
2018-11-13T20:13:21.807Z,19.06
2018-11-13T20:13:38.184Z,19.06
2018-11-13T20:13:54.577Z,19.06
2018-11-13T20:14:10.975Z,19.07
2018-11-13T20:14:27.320Z,19.07
2018-11-13T20:14:43.663Z,19.09
2018-11-13T20:15:00.181Z,19.08
2018-11-13T20:15:16.847Z,19.07
2018-11-13T20:15:33.250Z,19.06
2018-11-13T20:15:49.774Z,19.05
2018-11-13T20:16:06.823Z,19.04
2018-11-13T20:16:23.562Z,19.04
2018-11-13T20:16:39.931Z,19.03
2018-11-13T20:16:56.334Z,19.04
2018-11-13T20:17:12.722Z,19.03
2018-11-13T20:17:29.072Z,19.02
2018-11-13T20:17:45.454Z,19.02
2018-11-13T20:18:01.844Z,19.03
2018-11-13T20:18:18.257Z,19.04
2018-11-13T20:18:34.619Z,19.04
2018-11-13T20:18:50.998Z,19.04
2018-11-13T20:19:07.353Z,19.04
2018-11-13T20:19:23.730Z,19.04
2018-11-13T20:19:40.085Z,19.02
2018-11-13T20:19:56.461Z,19.03
2018-11-13T20:20:12.837Z,19.02
2018-11-13T20:20:33.761Z,19.01
2018-11-13T20:20:50.146Z,19.02
2018-11-13T20:21:06.546Z,19.03
2018-11-13T20:21:22.978Z,19.03
2018-11-13T20:21:39.829Z,19.04
2018-11-13T20:21:56.604Z,19.04
2018-11-13T20:22:12.969Z,19.03
2018-11-13T20:22:30.620Z,19.03
2018-11-13T20:22:47.158Z,19.03
2018-11-13T20:23:03.553Z,19.02
2018-11-13T20:23:20.130Z,19.04
2018-11-13T20:23:37.732Z,19.04
2018-11-13T20:23:54.105Z,19.03
2018-11-13T20:24:10.765Z,19.05
2018-11-13T20:24:27.316Z,19.04
2018-11-13T20:24:44.383Z,18.99
2018-11-13T20:25:01.213Z,18.92
2018-11-13T20:25:17.570Z,18.84
2018-11-13T20:25:34.201Z,18.74
2018-11-13T20:25:50.768Z,18.61
2018-11-13T20:26:07.137Z,18.53
2018-11-13T20:26:23.503Z,18.46
2018-11-13T20:26:39.862Z,18.34
2018-11-13T20:26:56.308Z,18.25
2018-11-13T20:27:12.772Z,18.18
2018-11-13T20:27:29.158Z,18.16
2018-11-13T20:27:45.524Z,18.13
2018-11-13T20:28:01.900Z,18.13
2018-11-13T20:28:18.295Z,18.14
2018-11-13T20:28:34.674Z,18.12
2018-11-13T20:28:51.027Z,18.09
2018-11-13T20:29:07.405Z,18.05
2018-11-13T20:29:23.841Z,18
2018-11-13T20:29:40.202Z,17.94
2018-11-13T20:29:56.595Z,17.86
2018-11-13T20:30:12.979Z,17.81
2018-11-13T20:30:29.433Z,17.76
2018-11-13T20:30:46.202Z,17.68
2018-11-13T20:31:03.313Z,17.63
2018-11-13T20:31:20.670Z,17.58
2018-11-13T20:31:37.334Z,17.56
2018-11-13T20:31:53.719Z,17.53
2018-11-13T20:32:10.095Z,17.48
2018-11-13T20:32:26.465Z,17.45
2018-11-13T20:32:42.840Z,17.43
2018-11-13T20:32:59.200Z,17.42
2018-11-13T20:33:15.573Z,17.42
2018-11-13T20:33:31.974Z,17.37
2018-11-13T20:33:48.343Z,17.36
2018-11-13T20:34:04.686Z,17.32
2018-11-13T20:34:21.076Z,17.25
2018-11-13T20:34:37.469Z,17.23
2018-11-13T20:34:53.825Z,17.18
2018-11-13T20:35:10.201Z,17.16
2018-11-13T20:35:26.565Z,17.14
2018-11-13T20:35:42.919Z,17.12
2018-11-13T20:35:59.570Z,17.11
2018-11-13T20:36:15.949Z,17.08
2018-11-13T20:36:32.323Z,17.07
2018-11-13T20:36:48.734Z,17.05
2018-11-13T20:37:05.092Z,16.99
2018-11-13T20:37:21.564Z,16.99
2018-11-13T20:37:38.728Z,16.97
2018-11-13T20:37:55.528Z,16.92
2018-11-13T20:38:11.931Z,16.92
2018-11-13T20:38:28.332Z,16.93
2018-11-13T20:38:44.759Z,16.93
2018-11-13T20:39:01.125Z,16.91
2018-11-13T20:39:17.752Z,16.91
2018-11-13T20:39:34.096Z,16.92
2018-11-13T20:39:50.733Z,16.9
2018-11-13T20:40:07.099Z,16.88
2018-11-13T20:40:23.484Z,16.87
2018-11-13T20:40:39.871Z,16.86
2018-11-13T20:40:56.227Z,16.84
2018-11-13T20:41:12.853Z,16.84
2018-11-13T20:41:29.236Z,16.83
2018-11-13T20:41:45.580Z,16.8
2018-11-13T20:42:01.983Z,16.77
2018-11-13T20:42:18.365Z,16.79
2018-11-13T20:42:34.723Z,16.77
2018-11-13T20:42:51.084Z,16.75
2018-11-13T20:43:07.478Z,16.73
2018-11-13T20:43:24.459Z,16.71
2018-11-13T20:43:41.619Z,16.71
2018-11-13T20:43:58.382Z,16.72
2018-11-13T20:44:14.756Z,16.73
2018-11-13T20:44:31.224Z,16.68
2018-11-13T20:44:48.017Z,16.68
2018-11-13T20:45:05.092Z,16.68
2018-11-13T20:45:21.472Z,16.66
2018-11-13T20:45:37.833Z,16.63
2018-11-13T20:45:54.221Z,16.6
2018-11-13T20:46:10.617Z,16.57
2018-11-13T20:46:27.267Z,16.56
2018-11-13T20:46:43.662Z,16.55
2018-11-13T20:47:00.060Z,16.54
2018-11-13T20:47:16.468Z,16.6
2018-11-13T20:47:32.827Z,16.68
2018-11-13T20:47:49.201Z,16.77
2018-11-13T20:48:05.578Z,16.86
2018-11-13T20:48:21.953Z,16.95
2018-11-13T20:48:38.341Z,17.04
2018-11-13T20:48:54.702Z,17.13
2018-11-13T20:49:11.104Z,17.21
2018-11-13T20:49:27.487Z,17.31
2018-11-13T20:49:43.849Z,17.39
2018-11-13T20:50:00.276Z,17.47
2018-11-13T20:50:16.783Z,17.55
2018-11-13T20:50:33.241Z,17.61
2018-11-13T20:50:49.620Z,17.67
2018-11-13T20:51:05.979Z,17.74
2018-11-13T20:51:22.497Z,17.78
2018-11-13T20:51:39.744Z,17.86
2018-11-13T20:51:56.522Z,17.9
2018-11-13T20:52:12.879Z,17.91
2018-11-13T20:52:29.314Z,17.94
2018-11-13T20:52:45.679Z,17.96
2018-11-13T20:53:02.068Z,18
2018-11-13T20:53:18.470Z,18.06
2018-11-13T20:53:34.853Z,18.08
2018-11-13T20:53:51.215Z,18.1
2018-11-13T20:54:07.580Z,18.12
2018-11-13T20:54:24.218Z,18.15
2018-11-13T20:54:40.627Z,18.18
2018-11-13T20:54:56.989Z,18.19
2018-11-13T20:55:13.374Z,18.22
2018-11-13T20:55:29.731Z,18.22
2018-11-13T20:55:46.097Z,18.24
2018-11-13T20:56:02.477Z,18.24
2018-11-13T20:56:18.838Z,18.25
2018-11-13T20:56:35.213Z,18.25
2018-11-13T20:56:51.880Z,18.24
2018-11-13T20:57:08.292Z,18.23
2018-11-13T20:57:24.670Z,18.23
2018-11-13T20:57:41.051Z,18.24
2018-11-13T20:57:57.473Z,18.24
2018-11-13T20:58:13.846Z,18.24
2018-11-13T20:58:30.209Z,18.23
2018-11-13T20:58:46.595Z,18.23
2018-11-13T20:59:02.978Z,18.27
2018-11-13T20:59:19.352Z,18.28
2018-11-13T20:59:35.701Z,18.3
2018-11-13T20:59:52.092Z,18.32
2018-11-13T21:00:08.446Z,18.31
2018-11-13T21:00:24.807Z,18.31
2018-11-13T21:00:41.156Z,18.31
2018-11-13T21:00:57.516Z,18.31
2018-11-13T21:01:13.893Z,18.3
2018-11-13T21:01:30.294Z,18.29
2018-11-13T21:01:46.815Z,18.28
2018-11-13T21:02:04.252Z,18.28
2018-11-13T21:02:21.239Z,18.29
2018-11-13T21:02:38.336Z,18.29
2018-11-13T21:02:55.380Z,18.28
2018-11-13T21:03:11.820Z,18.29
2018-11-13T21:03:28.225Z,18.29
2018-11-13T21:03:44.589Z,18.32
2018-11-13T21:04:00.940Z,18.31
2018-11-13T21:04:17.317Z,18.32
2018-11-13T21:04:33.732Z,18.34
2018-11-13T21:04:50.104Z,18.35
2018-11-13T21:05:06.482Z,18.4
2018-11-13T21:05:22.880Z,18.41
2018-11-13T21:05:39.230Z,18.41
2018-11-13T21:05:55.585Z,18.41
2018-11-13T21:06:11.956Z,18.41
2018-11-13T21:06:28.404Z,18.4
2018-11-13T21:06:44.770Z,18.4
2018-11-13T21:07:01.131Z,18.38
2018-11-13T21:07:17.770Z,18.37
2018-11-13T21:07:34.372Z,18.35
2018-11-13T21:07:51.333Z,18.36
2018-11-13T21:08:08.177Z,18.36
2018-11-13T21:08:24.845Z,18.36
2018-11-13T21:08:41.701Z,18.36
2018-11-13T21:08:58.434Z,18.36
2018-11-13T21:09:14.792Z,18.36
2018-11-13T21:09:31.428Z,18.37
2018-11-13T21:09:47.956Z,18.36
2018-11-13T21:10:04.709Z,18.37